createdAt,value
2022-11-05T00:00:09.543Z,4.90
2022-11-05T00:02:55.852Z,5.32
2022-11-05T00:05:41.561Z,7.80
2022-11-05T00:08:27.791Z,7.13
2022-11-05T00:10:55.596Z,10.00
2022-11-05T00:13:41.464Z,7.50
2022-11-05T00:16:41.505Z,6.85
2022-11-05T00:19:10.331Z,9.52
2022-11-05T00:21:59.093Z,7.78
2022-11-05T00:24:45.180Z,5.35
2022-11-05T00:27:14.968Z,6.70
2022-11-05T00:29:42.012Z,7.30
2022-11-05T00:32:09.039Z,6.82
2022-11-05T00:34:36.065Z,6.80
2022-11-05T00:37:03.113Z,9.13
2022-11-05T00:39:30.302Z,5.47
2022-11-05T00:42:16.581Z,5.77
2022-11-05T00:45:02.083Z,6.03
2022-11-05T00:47:49.584Z,7.80
2022-11-05T00:50:20.480Z,5.75
2022-11-05T00:52:58.298Z,8.75
2022-11-05T00:55:30.301Z,10.02
2022-11-05T00:57:58.167Z,9.15
2022-11-05T01:00:26.688Z,7.18
2022-11-05T01:02:53.822Z,7.90
2022-11-05T01:05:21.042Z,6.32
2022-11-05T01:07:48.145Z,6.85
2022-11-05T01:10:15.270Z,7.15
2022-11-05T01:12:42.349Z,6.82
2022-11-05T01:15:09.561Z,7.07
2022-11-05T01:17:36.813Z,7.55
2022-11-05T01:20:04.362Z,6.70
2022-11-05T01:22:31.507Z,6.53
2022-11-05T01:24:58.726Z,8.38
2022-11-05T01:27:25.926Z,6.70
2022-11-05T01:29:53.234Z,5.85
2022-11-05T01:32:20.720Z,6.55
2022-11-05T01:34:48.728Z,7.28
2022-11-05T01:37:16.140Z,8.52
2022-11-05T01:39:43.392Z,8.80
2022-11-05T01:42:15.363Z,6.88
2022-11-05T01:45:00.162Z,5.88
2022-11-05T01:47:33.386Z,8.38
2022-11-05T01:50:02.889Z,8.38
2022-11-05T01:52:32.695Z,5.85
2022-11-05T01:55:00.543Z,7.13
2022-11-05T01:57:28.906Z,9.57
2022-11-05T01:59:57.907Z,7.18
2022-11-05T02:02:26.085Z,6.63
2022-11-05T02:04:55.744Z,6.57
2022-11-05T02:07:24.352Z,7.07
2022-11-05T02:09:54.453Z,6.38
2022-11-05T02:12:22.021Z,7.05
2022-11-05T02:14:49.257Z,8.07
2022-11-05T02:17:39.634Z,5.10
2022-11-05T02:20:25.974Z,5.63
2022-11-05T02:22:56.364Z,7.60
2022-11-05T02:25:51.180Z,7.75
2022-11-05T02:28:43.294Z,7.97
2022-11-05T02:31:21.831Z,6.75
2022-11-05T02:33:49.365Z,7.25
2022-11-05T02:36:16.610Z,5.85
2022-11-05T02:38:53.130Z,8.18
2022-11-05T02:41:32.157Z,9.48
2022-11-05T02:44:17.457Z,7.40
2022-11-05T02:46:57.629Z,8.50
2022-11-05T02:49:27.657Z,8.40
2022-11-05T02:51:58.567Z,7.70
2022-11-05T02:54:30.074Z,7.72
2022-11-05T02:56:58.872Z,10.25
2022-11-05T02:59:25.992Z,7.50
2022-11-05T03:01:53.703Z,7.75
2022-11-05T03:04:22.354Z,10.13
2022-11-05T03:07:08.674Z,12.55
2022-11-05T03:09:54.730Z,11.88
2022-11-05T03:12:54.266Z,10.85
2022-11-05T03:15:34.022Z,9.60
2022-11-05T03:18:21.206Z,12.88
2022-11-05T03:20:57.912Z,13.63
2022-11-05T03:23:51.263Z,12.32
2022-11-05T03:26:18.468Z,15.77
2022-11-05T03:28:48.591Z,11.07
2022-11-05T03:31:23.400Z,12.25
2022-11-05T03:33:53.798Z,13.05
2022-11-05T03:36:33.155Z,13.48
2022-11-05T03:39:09.288Z,12.82
2022-11-05T03:41:51.218Z,11.48
2022-11-05T03:44:21.449Z,12.63
2022-11-05T03:46:49.701Z,12.23
2022-11-05T03:49:20.150Z,14.60
2022-11-05T03:51:52.016Z,11.93
2022-11-05T03:54:19.756Z,11.80
2022-11-05T03:56:49.922Z,11.02
2022-11-05T03:59:17.740Z,14.90
2022-11-05T04:01:44.858Z,14.23
2022-11-05T04:04:15.532Z,12.02
2022-11-05T04:07:01.694Z,10.95
2022-11-05T04:09:47.975Z,9.82
2022-11-05T04:12:33.800Z,13.95
2022-11-05T04:15:01.277Z,10.73
2022-11-05T04:17:28.826Z,15.82
2022-11-05T04:20:14.889Z,11.77
2022-11-05T04:23:00.680Z,12.13
2022-11-05T04:25:28.150Z,14.07
2022-11-05T04:27:59.150Z,13.02
2022-11-05T04:30:26.198Z,13.82
2022-11-05T04:32:58.176Z,15.13
2022-11-05T04:35:26.457Z,12.90
2022-11-05T04:37:54.530Z,13.10
2022-11-05T04:40:22.249Z,12.15
2022-11-05T04:42:49.960Z,13.68
2022-11-05T04:45:17.820Z,17.05
2022-11-05T04:47:45.688Z,12.32
2022-11-05T04:50:13.775Z,12.20
2022-11-05T04:52:41.635Z,11.63
2022-11-05T04:55:09.586Z,12.10
2022-11-05T04:57:37.825Z,11.30
2022-11-05T05:00:06.125Z,11.60
2022-11-05T05:02:33.559Z,10.93
2022-11-05T05:05:00.735Z,12.77
2022-11-05T05:07:28.501Z,10.52
2022-11-05T05:09:55.570Z,11.13
2022-11-05T05:12:23.977Z,9.25
2022-11-05T05:14:51.230Z,7.95
2022-11-05T05:17:18.468Z,7.53
2022-11-05T05:20:04.637Z,6.25
2022-11-05T05:22:32.157Z,6.57
2022-11-05T05:25:00.156Z,5.75
2022-11-05T05:27:31.644Z,5.38
2022-11-05T05:29:59.833Z,6.15
2022-11-05T05:32:27.502Z,8.63
2022-11-05T05:34:54.957Z,12.68
2022-11-05T05:37:22.430Z,14.13
2022-11-05T05:39:49.827Z,10.73
2022-11-05T05:42:17.239Z,11.90
2022-11-05T05:44:44.686Z,14.43
2022-11-05T05:47:11.919Z,11.68
2022-11-05T05:49:39.380Z,10.02
2022-11-05T05:52:06.851Z,9.82
2022-11-05T05:54:38.282Z,10.27
2022-11-05T05:57:08.853Z,11.65
2022-11-05T05:59:36.288Z,11.85
2022-11-05T06:02:03.777Z,8.13
2022-11-05T06:04:31.228Z,10.20
2022-11-05T06:06:58.369Z,12.02
2022-11-05T06:09:25.620Z,11.07
2022-11-05T06:11:53.185Z,11.27
2022-11-05T06:14:20.436Z,13.88
2022-11-05T06:16:47.786Z,14.10
2022-11-05T06:19:15.243Z,18.17
2022-11-05T06:21:42.390Z,16.33
2022-11-05T06:24:11.687Z,12.50
2022-11-05T06:26:42.908Z,13.88
2022-11-05T06:29:13.369Z,12.95
2022-11-05T06:31:40.620Z,13.35
2022-11-05T06:34:07.845Z,14.05
2022-11-05T06:36:35.014Z,9.77
2022-11-05T06:39:02.141Z,9.27
2022-11-05T06:41:30.829Z,11.50
2022-11-05T06:44:00.006Z,10.60
2022-11-05T06:46:31.589Z,10.07
2022-11-05T06:54:16.482Z,15.35
2022-11-05T06:56:43.632Z,13.18
2022-11-05T06:59:10.821Z,14.95
2022-11-05T07:09:47.953Z,12.40
2022-11-05T07:12:15.261Z,12.15
2022-11-05T07:14:43.546Z,12.95
2022-11-05T07:17:12.148Z,14.27
2022-11-05T07:19:39.741Z,14.60
2022-11-05T07:22:06.901Z,15.70
2022-11-05T07:24:34.253Z,14.65
2022-11-05T07:38:17.575Z,13.55
2022-11-05T07:40:44.794Z,20.70
2022-11-05T09:51:23.404Z,9.55
2022-11-05T09:53:55.920Z,12.48
2022-11-05T09:56:25.350Z,10.00
2022-11-05T10:01:24.100Z,10.95
2022-11-05T10:03:54.152Z,9.95
2022-11-05T10:06:26.545Z,11.75
2022-11-05T10:08:58.371Z,9.63
2022-11-05T10:11:47.435Z,12.57
2022-11-05T10:14:20.555Z,10.55
2022-11-05T10:16:58.939Z,11.55
2022-11-05T10:19:34.716Z,11.18
2022-11-05T10:22:16.959Z,13.38
2022-11-05T10:24:48.125Z,11.20
2022-11-05T10:27:21.620Z,10.88
2022-11-05T10:29:49.025Z,8.93
2022-11-05T10:32:43.125Z,10.02
2022-11-05T10:35:19.564Z,10.10
2022-11-05T10:37:50.617Z,10.27
2022-11-05T10:40:27.057Z,11.65
2022-11-05T10:43:20.153Z,10.52
2022-11-05T10:45:59.290Z,10.93
2022-11-05T10:48:59.653Z,13.60
2022-11-05T10:51:30.545Z,13.63
2022-11-05T10:54:02.244Z,12.35
2022-11-05T10:56:40.983Z,11.88
2022-11-05T10:59:20.801Z,17.13
2022-11-05T11:01:48.205Z,13.57
2022-11-05T11:04:26.482Z,10.87
2022-11-05T11:06:55.504Z,10.13
2022-11-05T11:09:28.780Z,9.35
2022-11-05T11:12:03.634Z,7.93
2022-11-05T11:14:31.761Z,11.30
2022-11-05T11:17:19.909Z,12.33
2022-11-05T11:19:47.993Z,10.88
2022-11-05T11:22:26.785Z,11.05
2022-11-05T11:24:54.438Z,13.00
2022-11-05T11:27:29.792Z,9.80
2022-11-05T11:30:01.581Z,8.77
2022-11-05T11:32:35.353Z,9.18
2022-11-05T11:35:06.189Z,10.02
2022-11-05T11:37:37.531Z,10.05
2022-11-05T11:40:18.423Z,7.25
2022-11-05T11:42:47.122Z,8.23
2022-11-05T11:45:24.763Z,9.38
2022-11-05T11:47:52.335Z,9.63
2022-11-05T11:50:40.281Z,7.93
2022-11-05T11:53:26.014Z,8.23
2022-11-05T11:55:56.583Z,10.87
2022-11-05T11:58:25.979Z,10.60
2022-11-05T12:00:59.293Z,10.75
2022-11-05T12:03:40.983Z,12.07
2022-11-05T12:06:20.174Z,10.65
2022-11-05T12:09:06.507Z,10.40
2022-11-05T12:12:01.407Z,8.82
2022-11-05T12:14:35.162Z,10.70
2022-11-05T12:17:02.321Z,8.55
2022-11-05T12:19:29.488Z,7.00
2022-11-05T12:21:56.644Z,9.57
2022-11-05T12:24:39.477Z,9.75
2022-11-05T12:27:14.080Z,10.32
2022-11-05T12:29:42.513Z,8.80
2022-11-05T12:32:30.425Z,7.45
2022-11-05T12:35:14.616Z,7.67
2022-11-05T12:38:04.056Z,8.95
2022-11-05T12:40:43.015Z,9.63
2022-11-05T12:43:20.856Z,9.75
2022-11-05T12:45:56.962Z,7.90
2022-11-05T12:48:38.544Z,7.90
2022-11-05T12:51:22.712Z,10.43
2022-11-05T12:54:07.004Z,7.22
2022-11-05T12:59:40.986Z,6.22
2022-11-05T13:02:08.211Z,8.50
2022-11-05T13:04:46.944Z,8.40
2022-11-05T13:07:17.504Z,9.43
2022-11-05T13:09:54.408Z,9.93
2022-11-05T13:12:23.251Z,9.75
2022-11-05T13:14:55.229Z,8.27
2022-11-05T13:17:28.833Z,9.32
2022-11-05T13:20:14.473Z,9.00
2022-11-05T13:22:49.758Z,9.30
2022-11-05T13:25:24.912Z,9.05
2022-11-05T13:28:10.742Z,10.03
2022-11-05T13:30:39.275Z,9.35
2022-11-05T13:33:30.413Z,7.82
2022-11-05T13:36:18.408Z,11.02
2022-11-05T13:39:07.745Z,16.20
2022-11-05T13:41:44.702Z,6.43
2022-11-05T13:44:11.820Z,8.15
2022-11-05T13:46:42.098Z,12.45
2022-11-05T13:49:18.679Z,11.13
2022-11-05T13:52:18.868Z,10.75
2022-11-05T13:54:52.433Z,12.53
2022-11-05T13:57:30.219Z,10.48
2022-11-05T14:00:19.074Z,11.13
2022-11-05T14:02:50.258Z,9.40
2022-11-05T14:05:34.109Z,10.85
2022-11-05T14:08:09.870Z,10.20
2022-11-05T14:10:47.290Z,10.60
2022-11-05T14:13:18.891Z,10.52
2022-11-05T14:16:12.505Z,10.02
2022-11-05T14:18:39.577Z,10.55
2022-11-05T14:21:07.916Z,9.10
2022-11-05T14:23:49.460Z,9.95
2022-11-05T14:26:21.787Z,10.90
2022-11-05T14:29:12.672Z,10.48
2022-11-05T14:32:08.210Z,9.82
2022-11-05T14:34:55.967Z,10.60
2022-11-05T14:37:25.647Z,8.23
2022-11-05T14:39:55.500Z,9.32
2022-11-05T14:42:27.407Z,12.13
2022-11-05T14:45:19.698Z,9.95
2022-11-05T14:47:56.778Z,8.30
2022-11-05T14:50:44.585Z,9.65
2022-11-05T14:53:25.518Z,10.35
2022-11-05T14:56:07.865Z,6.88
2022-11-05T14:58:36.794Z,7.50
2022-11-05T15:01:07.971Z,10.50
2022-11-05T15:03:46.498Z,8.93
2022-11-05T15:06:24.032Z,9.73
2022-11-05T15:08:51.163Z,9.95
2022-11-05T15:14:25.460Z,9.77
2022-11-05T15:16:53.732Z,7.22
2022-11-05T19:04:39.191Z,10.93
2022-11-05T19:07:06.893Z,11.98
2022-11-05T19:09:38.359Z,9.45
2022-11-05T19:12:07.430Z,10.27
2022-11-05T19:14:35.909Z,9.98
2022-11-05T19:17:04.954Z,10.23
2022-11-05T19:19:32.566Z,9.27
2022-11-05T19:22:01.316Z,8.93
2022-11-05T19:24:28.562Z,11.30
2022-11-05T19:26:55.918Z,8.63
2022-11-05T19:29:23.470Z,10.33
2022-11-05T19:31:50.843Z,9.98
2022-11-05T19:34:20.534Z,10.20
2022-11-05T19:36:47.632Z,9.52
2022-11-05T19:39:15.238Z,9.75
2022-11-05T19:41:42.608Z,9.37
2022-11-05T19:44:11.174Z,12.15
2022-11-05T19:46:38.536Z,11.80
2022-11-05T19:49:05.655Z,10.35
2022-11-05T19:51:32.940Z,14.75
2022-11-05T19:54:01.247Z,12.60
2022-11-05T19:56:30.466Z,9.50
2022-11-05T19:58:58.284Z,9.93
2022-11-05T20:01:26.835Z,10.23
2022-11-05T20:03:57.436Z,9.85
2022-11-05T20:06:29.041Z,11.73
2022-11-05T20:09:20.581Z,10.98
2022-11-05T20:11:49.978Z,11.20
2022-11-05T20:14:17.375Z,10.50
2022-11-05T20:16:45.870Z,12.43
2022-11-05T20:19:17.587Z,10.30
2022-11-05T20:21:46.932Z,10.55
2022-11-05T20:24:22.363Z,10.20
2022-11-05T20:26:52.263Z,11.82
2022-11-05T20:29:20.289Z,10.57
2022-11-05T20:31:47.878Z,11.10
2022-11-05T20:34:19.295Z,10.30
2022-11-05T20:36:50.623Z,11.77
2022-11-05T20:39:19.270Z,10.70
2022-11-05T20:41:47.262Z,10.43
2022-11-05T20:44:15.648Z,10.00
2022-11-05T20:46:42.968Z,12.20
2022-11-05T20:49:10.350Z,10.73
2022-11-05T20:51:37.810Z,10.73
2022-11-05T20:54:06.317Z,13.40
2022-11-05T20:56:41.060Z,9.37
2022-11-05T21:02:04.755Z,13.32
2022-11-05T21:04:32.179Z,10.70
2022-11-05T21:07:00.755Z,11.20
2022-11-05T21:09:28.177Z,9.17
2022-11-05T21:15:36.471Z,8.38
2022-11-05T21:18:05.359Z,10.52
2022-11-05T21:20:32.515Z,12.07
2022-11-05T21:22:59.921Z,9.33
2022-11-05T21:25:27.219Z,9.65
2022-11-05T21:27:54.715Z,13.00
2022-11-05T21:30:22.022Z,11.88
2022-11-05T21:32:49.416Z,9.20
2022-11-05T21:35:17.631Z,9.23
2022-11-05T21:37:44.816Z,7.45
2022-11-05T21:40:12.419Z,10.60
2022-11-05T21:42:40.753Z,14.43
2022-11-05T21:45:08.265Z,10.02
2022-11-05T21:47:35.500Z,8.77
2022-11-05T21:50:02.806Z,11.85
2022-11-05T21:52:53.170Z,10.65
2022-11-05T21:55:47.079Z,10.88
2022-11-05T21:58:37.075Z,9.95
2022-11-05T22:01:05.850Z,13.97
2022-11-05T22:03:33.178Z,9.85
2022-11-05T22:06:00.855Z,10.30
2022-11-05T22:08:28.352Z,11.73
2022-11-05T22:10:55.801Z,9.50
2022-11-05T22:13:23.114Z,12.20
2022-11-05T22:16:02.363Z,9.35
2022-11-05T22:18:40.646Z,10.45
2022-11-05T22:21:09.558Z,12.15
2022-11-05T22:23:37.042Z,9.23
2022-11-05T22:26:05.598Z,9.03
2022-11-05T22:28:34.238Z,11.32
2022-11-05T22:31:01.339Z,10.88
2022-11-05T22:33:28.594Z,10.52
2022-11-05T22:35:55.750Z,9.20
2022-11-05T22:38:23.121Z,8.33
2022-11-05T22:40:50.311Z,9.20
2022-11-05T22:43:18.849Z,11.10
2022-11-05T22:45:45.932Z,10.43
2022-11-05T22:48:13.500Z,11.60
2022-11-05T22:51:20.823Z,11.63
2022-11-05T22:53:48.482Z,9.70
2022-11-05T22:56:39.854Z,9.80
2022-11-05T22:59:07.513Z,10.05
2022-11-05T23:01:35.113Z,9.73
2022-11-05T23:04:02.249Z,10.80
2022-11-05T23:10:00.699Z,7.95
2022-11-05T23:12:34.581Z,9.25
2022-11-05T23:15:03.569Z,9.95
2022-11-05T23:17:52.631Z,12.50
2022-11-05T23:20:48.094Z,9.68
2022-11-05T23:23:39.621Z,9.52
2022-11-05T23:29:13.307Z,8.15
2022-11-05T23:32:01.676Z,10.43
2022-11-05T23:34:30.964Z,14.55
2022-11-05T23:37:22.752Z,10.80
2022-11-05T23:39:50.414Z,10.98
2022-11-05T23:42:40.295Z,9.45
2022-11-05T23:45:27.615Z,9.77
2022-11-05T23:51:18.114Z,11.50
2022-11-05T23:53:47.752Z,10.85
2022-11-05T23:56:15.653Z,16.90
2022-11-05T23:58:42.962Z,9.00
